createdAt,value
2023-03-22T00:00:50.722Z,23
2023-03-22T00:03:52.827Z,22.6
2023-03-22T00:06:54.649Z,22.5
2023-03-22T00:09:56.607Z,19.7
2023-03-22T00:12:58.581Z,19.8
2023-03-22T00:16:00.545Z,19.6
2023-03-22T00:19:02.664Z,21.3
2023-03-22T00:22:04.463Z,19.6
2023-03-22T00:25:06.438Z,19.1
2023-03-22T00:28:08.410Z,19.2
2023-03-22T00:31:10.351Z,19.3
2023-03-22T00:34:12.321Z,18
2023-03-22T00:37:14.264Z,17.6
2023-03-22T00:40:18.172Z,16.8
2023-03-22T00:43:18.218Z,15.7
2023-03-22T00:46:20.412Z,14.8
2023-03-22T00:49:22.130Z,13.3
2023-03-22T00:52:24.099Z,14.4
2023-03-22T00:55:26.067Z,14.9
2023-03-22T00:58:28.038Z,16.9
2023-03-22T01:01:30.072Z,14.9
2023-03-22T01:04:31.974Z,13.2
2023-03-22T01:07:33.986Z,12.2
2023-03-22T01:10:35.911Z,12.6
2023-03-22T01:13:37.902Z,14.1
2023-03-22T01:16:39.945Z,13.2
2023-03-22T01:19:41.822Z,10.8
2023-03-22T01:22:43.773Z,11.1
2023-03-22T01:25:45.731Z,10.5
2023-03-22T01:28:47.699Z,9.5
2023-03-22T01:31:49.659Z,9.9
2023-03-22T01:34:51.621Z,9.7
2023-03-22T01:37:53.586Z,9.9
2023-03-22T01:40:55.553Z,8.6
2023-03-22T01:43:57.532Z,10
2023-03-22T01:46:59.483Z,9.4
2023-03-22T01:50:01.434Z,9.5
2023-03-22T01:53:03.396Z,8.6
2023-03-22T01:56:05.380Z,8.8
2023-03-22T01:59:07.314Z,9.1
2023-03-22T02:02:09.291Z,9.4
2023-03-22T02:05:11.253Z,9.5
2023-03-22T02:08:13.207Z,10.1
2023-03-22T02:11:15.162Z,11.5
2023-03-22T02:14:17.160Z,9.3
2023-03-22T02:17:19.119Z,10
2023-03-22T02:20:21.085Z,11
2023-03-22T02:23:23.044Z,10.1
2023-03-22T02:26:24.983Z,8.4
2023-03-22T02:29:26.968Z,9
2023-03-22T02:32:28.916Z,8.5
2023-03-22T02:35:30.906Z,8.6
2023-03-22T02:38:32.858Z,8.3
2023-03-22T02:41:34.804Z,8.8
2023-03-22T02:44:36.801Z,8.9
2023-03-22T02:47:38.729Z,8.7
2023-03-22T02:50:40.902Z,9.3
2023-03-22T02:53:42.666Z,9.2
2023-03-22T02:56:44.629Z,9.4
2023-03-22T02:59:46.605Z,10.4
2023-03-22T03:02:48.560Z,9.4
2023-03-22T03:05:50.530Z,10.2
2023-03-22T03:08:52.501Z,10
2023-03-22T03:11:54.473Z,8.8
2023-03-22T03:14:56.444Z,8.7
2023-03-22T03:17:58.539Z,9.3
2023-03-22T03:21:00.388Z,9
2023-03-22T03:24:02.319Z,9.9
2023-03-22T03:27:04.254Z,10
2023-03-22T03:30:06.215Z,9.1
2023-03-22T03:33:08.180Z,9.6
2023-03-22T03:36:10.161Z,8.9
2023-03-22T03:39:12.140Z,8.9
2023-03-22T03:42:14.128Z,9.3
2023-03-22T03:45:16.072Z,9.4
2023-03-22T03:48:18.110Z,10.5
2023-03-22T03:51:19.995Z,10
2023-03-22T03:54:21.953Z,9.8
2023-03-22T03:57:23.916Z,10.3
2023-03-22T04:00:25.890Z,9
2023-03-22T04:03:27.879Z,11.9
2023-03-22T04:06:29.843Z,10.5
2023-03-22T04:09:31.867Z,11.1
2023-03-22T04:12:33.909Z,9.2
2023-03-22T04:15:35.894Z,11.2
2023-03-22T04:18:37.838Z,10.1
2023-03-22T04:21:39.800Z,9.9
2023-03-22T04:24:41.782Z,9.5
2023-03-22T04:27:43.733Z,10.7
2023-03-22T04:30:45.841Z,10.6
2023-03-22T04:33:47.669Z,9.9
2023-03-22T04:36:49.618Z,11.1
2023-03-22T04:39:51.607Z,12.4
2023-03-22T04:42:53.552Z,11.4
2023-03-22T04:45:55.568Z,11.4
2023-03-22T04:48:57.493Z,10.7
2023-03-22T04:51:59.439Z,11
2023-03-22T04:55:01.413Z,11.4
2023-03-22T04:58:03.520Z,11.3
2023-03-22T05:01:05.453Z,12
2023-03-22T05:04:07.325Z,13.2
2023-03-22T05:07:09.345Z,12.3
2023-03-22T05:10:11.273Z,13.8
2023-03-22T05:13:13.236Z,13.4
2023-03-22T05:16:15.256Z,13.4
2023-03-22T05:19:17.176Z,16.6
2023-03-22T05:22:19.129Z,15.9
2023-03-22T05:25:21.112Z,14.9
2023-03-22T05:28:23.059Z,17
2023-03-22T05:31:25.101Z,16.5
2023-03-22T05:34:27.094Z,15.4
2023-03-22T05:37:29.109Z,15.5
2023-03-22T05:40:31.053Z,14.7
2023-03-22T05:43:33.294Z,16
2023-03-22T05:46:35.097Z,15.3
2023-03-22T05:49:37.022Z,16.4
2023-03-22T05:52:39.001Z,15
2023-03-22T05:55:40.978Z,13
2023-03-22T05:58:42.942Z,13.8
2023-03-22T06:01:44.935Z,13.5
2023-03-22T06:04:46.852Z,13
2023-03-22T06:07:48.832Z,12.5
2023-03-22T06:10:50.796Z,11.6
2023-03-22T06:13:52.990Z,14.2
2023-03-22T06:16:54.777Z,14.1
2023-03-22T06:19:56.758Z,13
2023-03-22T06:22:58.686Z,12.8
2023-03-22T06:26:00.645Z,13.7
2023-03-22T06:29:02.622Z,12.6
2023-03-22T06:32:04.573Z,12.1
2023-03-22T06:35:06.637Z,12.8
2023-03-22T06:38:08.515Z,11.6
2023-03-22T06:41:10.471Z,11.6
2023-03-22T06:44:12.446Z,11
2023-03-22T06:47:14.423Z,9.7
2023-03-22T06:50:19.431Z,9.1
2023-03-22T06:53:21.410Z,8.8
2023-03-22T06:56:23.454Z,9.5
2023-03-22T06:59:28.447Z,9.1
2023-03-22T07:02:30.391Z,8.3
2023-03-22T07:05:32.394Z,8.6
2023-03-22T07:08:34.349Z,8.6
2023-03-22T07:11:36.301Z,7.8
2023-03-22T07:14:38.300Z,7.7
2023-03-22T07:17:40.288Z,7.2
2023-03-22T07:20:42.548Z,6.6
2023-03-22T07:23:44.227Z,6
2023-03-22T07:26:46.189Z,6.9
2023-03-22T07:29:48.166Z,6.2
2023-03-22T07:32:50.258Z,6
2023-03-22T07:35:52.422Z,6.4
2023-03-22T07:38:54.303Z,6.3
2023-03-22T07:41:56.163Z,6.7
2023-03-22T07:45:00.973Z,6.3
2023-03-22T07:48:02.925Z,5.8
2023-03-22T07:51:04.876Z,6.1
2023-03-22T07:54:07.778Z,5.6
2023-03-22T07:57:08.804Z,6.5
2023-03-22T08:00:10.780Z,5.8
2023-03-22T08:03:12.791Z,5.8
2023-03-22T08:06:14.706Z,5.7
2023-03-22T08:09:16.680Z,5.7
2023-03-22T08:12:18.596Z,5.7
2023-03-22T08:15:22.516Z,4.8
2023-03-22T08:18:22.522Z,5.3
2023-03-22T08:21:24.514Z,4.4
2023-03-22T08:24:26.476Z,4.4
2023-03-22T08:27:28.410Z,4.3
2023-03-22T08:30:30.357Z,4
2023-03-22T08:33:32.343Z,4
2023-03-22T08:36:34.299Z,3.7
2023-03-22T08:39:36.300Z,3.8
2023-03-22T08:42:38.256Z,4
2023-03-22T08:45:40.467Z,3.8
2023-03-22T08:48:42.177Z,3.5
2023-03-22T08:51:44.135Z,4
2023-03-22T08:54:46.102Z,3.1
2023-03-22T08:57:48.057Z,3.5
2023-03-22T09:00:50.303Z,3.2
2023-03-22T09:03:52.182Z,2.8
2023-03-22T09:06:54.042Z,2.8
2023-03-22T09:09:56.027Z,2.7
2023-03-22T09:12:57.991Z,2.7
2023-03-22T09:15:59.975Z,2.2
2023-03-22T09:19:01.885Z,2.5
2023-03-22T09:22:03.834Z,2.7
2023-03-22T09:25:05.859Z,2.4
2023-03-22T09:28:07.873Z,2.4
2023-03-22T09:31:09.841Z,2.7
2023-03-22T09:34:11.729Z,2.2
2023-03-22T09:37:13.677Z,2.4
2023-03-22T09:40:15.663Z,2.1
2023-03-22T09:43:17.626Z,2.3
2023-03-22T09:46:19.626Z,2
2023-03-22T09:49:21.520Z,2.3
2023-03-22T09:52:23.637Z,2.1
2023-03-22T09:55:25.466Z,1.6
2023-03-22T09:58:27.474Z,1.8
2023-03-22T10:01:29.571Z,1.6
2023-03-22T10:04:31.534Z,1.7
2023-03-22T10:07:33.400Z,1.9
2023-03-22T10:10:35.323Z,1.7
2023-03-22T10:13:57.631Z,1.5
2023-03-22T10:16:39.517Z,1.5
2023-03-22T10:19:41.528Z,1.5
2023-03-22T10:22:43.466Z,1.6
2023-03-22T10:25:45.432Z,1.6
2023-03-22T10:28:47.393Z,1.6
2023-03-22T10:31:49.416Z,1.3
2023-03-22T10:34:51.362Z,1.5
2023-03-22T10:37:53.345Z,1
2023-03-22T10:40:55.265Z,0.9
2023-03-22T10:43:57.245Z,1.3
2023-03-22T10:46:59.251Z,1
2023-03-22T10:50:01.165Z,0.9
2023-03-22T10:53:03.141Z,1
2023-03-22T10:56:05.097Z,1
2023-03-22T10:59:07.049Z,0.8
2023-03-22T11:02:09.137Z,0.9
2023-03-22T11:05:10.975Z,0.9
2023-03-22T11:08:12.932Z,0.9
2023-03-22T11:11:14.938Z,1
2023-03-22T11:14:16.846Z,0.9
2023-03-22T11:17:18.806Z,0.9
2023-03-22T11:20:20.789Z,0.9
2023-03-22T11:23:22.709Z,0.9
2023-03-22T11:29:26.637Z,1.1
2023-03-22T11:32:28.624Z,0.9
2023-03-22T11:35:30.641Z,0.7
2023-03-22T11:38:32.550Z,0.9
2023-03-22T11:41:34.514Z,0.8
2023-03-22T11:44:36.442Z,1
2023-03-22T11:47:38.468Z,0.9
2023-03-22T11:50:40.652Z,0.8
2023-03-22T11:53:42.398Z,0.7
2023-03-22T11:56:44.357Z,1
2023-03-22T11:59:46.333Z,1
2023-03-22T12:02:48.367Z,1.1
2023-03-22T12:05:50.254Z,0.8
2023-03-22T12:08:52.214Z,1.1
2023-03-22T12:11:54.166Z,0.9
2023-03-22T12:14:56.145Z,1
2023-03-22T12:17:58.194Z,0.9
2023-03-22T12:21:00.055Z,0.8
2023-03-22T12:24:02.038Z,0.8
2023-03-22T12:27:04.019Z,0.9
2023-03-22T12:30:05.980Z,0.9
2023-03-22T12:33:08.055Z,0.9
2023-03-22T12:36:09.944Z,0.9
2023-03-22T12:39:11.889Z,1
2023-03-22T12:42:13.935Z,1.1
2023-03-22T12:45:15.909Z,0.9
2023-03-22T12:48:17.910Z,0.8
2023-03-22T12:51:19.852Z,0.8
2023-03-22T12:54:21.812Z,0.8
2023-03-22T12:57:23.751Z,0.8
2023-03-22T13:00:25.715Z,0.7
2023-03-22T13:03:27.753Z,0.9
2023-03-22T13:06:29.631Z,0.8
2023-03-22T13:09:31.595Z,0.7
2023-03-22T13:12:33.549Z,0.9
2023-03-22T13:15:41.613Z,1
2023-03-22T13:18:37.480Z,0.8
2023-03-22T13:21:39.482Z,0.8
2023-03-22T13:24:41.418Z,0.8
2023-03-22T13:27:43.418Z,0.9
2023-03-22T13:30:45.340Z,0.7
2023-03-22T13:33:47.298Z,0.6
2023-03-22T13:36:49.268Z,0.8
2023-03-22T13:39:51.236Z,0.9
2023-03-22T13:42:53.193Z,0.8
2023-03-22T13:45:55.238Z,0.7
2023-03-22T13:48:58.449Z,0.7
2023-03-22T13:51:59.100Z,0.7
2023-03-22T13:55:01.069Z,0.7
2023-03-22T13:58:03.024Z,0.5
2023-03-22T14:01:05.031Z,0.7
2023-03-22T14:04:06.963Z,0.7
2023-03-22T14:07:08.942Z,0.9
2023-03-22T14:10:10.924Z,0.8
2023-03-22T14:13:12.816Z,0.6
2023-03-22T14:16:14.810Z,0.8
2023-03-22T14:19:16.881Z,0.7
2023-03-22T14:52:38.323Z,0.8
2023-03-22T14:55:40.542Z,0.6
2023-03-22T14:58:42.250Z,0.8
2023-03-22T15:01:44.248Z,0.8
2023-03-22T15:04:46.167Z,0.8
2023-03-22T15:07:48.127Z,0.7
2023-03-22T15:10:50.087Z,1
2023-03-22T15:13:52.056Z,0.9
2023-03-22T15:16:54.019Z,0.8
2023-03-22T15:19:55.996Z,0.6
2023-03-22T15:22:57.971Z,0.7
2023-03-22T15:25:59.957Z,0.7
2023-03-22T15:29:01.922Z,0.9
2023-03-22T15:32:03.882Z,1
2023-03-22T15:35:05.840Z,0.8
2023-03-22T15:38:07.789Z,0.9
2023-03-22T15:41:09.756Z,0.9
2023-03-22T15:44:11.742Z,0.8
2023-03-22T15:47:13.713Z,0.8
2023-03-22T15:50:15.705Z,0.8
2023-03-22T15:53:17.647Z,0.9
2023-03-22T15:56:19.806Z,1
2023-03-22T15:59:21.608Z,1
2023-03-22T16:02:23.541Z,0.9
2023-03-22T16:05:25.499Z,1.1
2023-03-22T16:08:27.469Z,1
2023-03-22T16:11:29.451Z,0.9
2023-03-22T16:14:31.406Z,0.8
2023-03-22T16:17:33.360Z,0.9
2023-03-22T16:20:35.332Z,1
2023-03-22T16:23:37.302Z,1
2023-03-22T16:26:39.240Z,1
2023-03-22T16:29:41.253Z,0.9
2023-03-22T16:32:43.178Z,0.8
2023-03-22T16:35:45.143Z,0.8
2023-03-22T16:38:47.091Z,1
2023-03-22T16:41:49.080Z,0.7
2023-03-22T16:44:56.122Z,0.9
2023-03-22T16:47:53.001Z,0.9
2023-03-22T16:50:57.872Z,1
2023-03-22T16:53:59.886Z,0.8
2023-03-22T16:57:01.835Z,1
2023-03-22T17:00:03.830Z,1
2023-03-22T17:03:05.834Z,0.9
2023-03-22T17:06:07.729Z,0.8
2023-03-22T17:09:09.698Z,0.7
2023-03-22T17:12:11.666Z,0.9
2023-03-22T17:15:13.594Z,0.9
2023-03-22T17:18:15.564Z,0.9
2023-03-22T17:21:17.521Z,1.2
2023-03-22T17:24:19.512Z,1
2023-03-22T17:27:21.597Z,0.9
2023-03-22T17:30:23.591Z,0.9
2023-03-22T17:33:25.562Z,1
2023-03-22T17:36:27.512Z,1
2023-03-22T17:40:00.594Z,0.8
2023-03-22T17:42:31.430Z,1
2023-03-22T17:45:44.793Z,0.9
2023-03-22T17:48:35.321Z,0.6
2023-03-22T17:51:40.122Z,0.9
2023-03-22T17:52:14.816Z,0.9
2023-03-22T17:52:46.778Z,1.2
2023-03-22T17:53:29.051Z,0.9
2023-03-22T17:54:16.515Z,1.2
2023-03-22T17:54:52.396Z,1.1
2023-03-22T18:00:26.608Z,1
2023-03-22T18:03:28.604Z,1.2
2023-03-22T18:06:30.572Z,1
2023-03-22T18:09:43.016Z,1.1
2023-03-22T18:12:34.821Z,1.3
2023-03-22T18:15:36.791Z,1.4
2023-03-22T18:18:38.739Z,1.6
2023-03-22T18:21:40.714Z,1.3
2023-03-22T18:24:42.693Z,1.3
2023-03-22T18:27:47.724Z,1.2
2023-03-22T18:30:46.686Z,1.2
2023-03-22T18:33:48.590Z,1.2
2023-03-22T18:36:50.572Z,1.1
2023-03-22T18:40:13.525Z,1.1
2023-03-22T18:42:54.521Z,1.1
2023-03-22T18:48:58.431Z,1.2
2023-03-22T18:52:31.931Z,1.2
2023-03-22T18:55:12.294Z,1.4
2023-03-22T18:58:04.435Z,1.1
2023-03-22T19:01:06.642Z,0.9
2023-03-22T19:04:08.878Z,1.1
2023-03-22T19:10:15.999Z,0.9
2023-03-22T19:13:18.165Z,0.9
2023-03-22T19:16:22.890Z,1
2023-03-22T19:19:25.000Z,1.5
2023-03-22T19:22:27.197Z,0.6
2023-03-22T19:25:31.998Z,0.8
2023-03-22T19:28:34.476Z,0.8
2023-03-22T19:31:35.985Z,0.6
2023-03-22T19:34:38.007Z,0.7
2023-03-22T19:37:42.753Z,0.9
2023-03-22T19:43:49.746Z,0.8
2023-03-22T19:46:54.915Z,0.6
2023-03-22T19:49:56.691Z,0.8
2023-03-22T19:52:58.757Z,1
2023-03-22T19:56:00.848Z,0.7
2023-03-22T19:59:03.385Z,0.9
2023-03-22T20:02:04.854Z,0.8
2023-03-22T20:05:14.906Z,0.7
2023-03-22T20:08:09.785Z,0.9
2023-03-22T20:14:12.915Z,1
2023-03-22T20:20:17.007Z,0.8
2023-03-22T20:23:22.003Z,0.9
2023-03-22T20:26:24.285Z,1
2023-03-22T20:29:26.224Z,0.6
2023-03-22T20:32:28.183Z,1
2023-03-22T20:35:30.121Z,0.8
2023-03-22T20:38:32.098Z,0.8
2023-03-22T20:41:34.906Z,0.9
2023-03-22T20:44:36.072Z,0.8
2023-03-22T20:47:38.061Z,0.6
2023-03-22T20:50:40.041Z,1
2023-03-22T20:53:41.991Z,0.7
2023-03-22T20:56:43.946Z,0.8
2023-03-22T20:59:45.920Z,0.8
2023-03-22T21:02:47.876Z,0.8
2023-03-22T21:05:49.846Z,0.8
2023-03-22T21:08:51.778Z,0.9
2023-03-22T21:11:53.742Z,0.7
2023-03-22T21:14:55.724Z,1
2023-03-22T21:17:57.684Z,0.9
2023-03-22T21:20:59.663Z,0.8
2023-03-22T21:24:01.622Z,0.8
2023-03-22T21:27:03.575Z,0.8
2023-03-22T21:30:05.634Z,0.8
2023-03-22T21:33:07.597Z,1
2023-03-22T21:36:09.637Z,0.9
2023-03-22T21:39:11.546Z,0.7
2023-03-22T21:42:13.507Z,0.8
2023-03-22T21:45:15.493Z,1.2
2023-03-22T21:48:17.453Z,1
2023-03-22T21:51:19.441Z,0.8
2023-03-22T21:54:21.385Z,0.7
2023-03-22T21:57:23.359Z,0.6
2023-03-22T22:00:25.311Z,0.9
2023-03-22T22:03:27.315Z,0.8
2023-03-22T22:06:29.248Z,0.8
2023-03-22T22:09:31.233Z,0.9
2023-03-22T22:12:33.180Z,0.9
2023-03-22T22:15:35.155Z,0.5
2023-03-22T22:18:37.110Z,0.6
2023-03-22T22:21:39.102Z,0.8
2023-03-22T22:24:41.062Z,0.7
2023-03-22T22:27:43.015Z,0.7
2023-03-22T22:30:44.997Z,0.8
2023-03-22T22:33:46.939Z,0.7
2023-03-22T22:36:48.910Z,0.6
2023-03-22T22:39:50.872Z,0.6
2023-03-22T22:42:52.821Z,0.7
2023-03-22T22:45:54.821Z,0.6
2023-03-22T22:48:56.757Z,0.6
2023-03-22T22:51:58.713Z,0.7
2023-03-22T22:55:00.678Z,0.7
2023-03-22T22:58:02.645Z,0.8
2023-03-22T23:01:04.617Z,0.5
2023-03-22T23:04:06.768Z,0.6
2023-03-22T23:07:08.523Z,0.5
2023-03-22T23:10:10.498Z,0.7
2023-03-22T23:13:12.443Z,0.6
2023-03-22T23:16:14.406Z,0.6
2023-03-22T23:19:16.423Z,0.8
2023-03-22T23:22:18.314Z,0.6
2023-03-22T23:25:20.273Z,0.6
2023-03-22T23:28:22.229Z,0.8
2023-03-22T23:31:24.208Z,0.6
2023-03-22T23:34:26.189Z,0.7
2023-03-22T23:37:28.134Z,0.6
2023-03-22T23:40:30.077Z,0.7
2023-03-22T23:43:32.124Z,0.7
2023-03-22T23:46:34.015Z,0.5
2023-03-22T23:49:36.043Z,0.8
2023-03-22T23:52:37.985Z,0.8
2023-03-22T23:55:40.192Z,0.8
2023-03-22T23:58:41.898Z,0.7
